Details for Ryanair at LGSA




Go Back


Latest METAR
Local Time

LGSA 241350Z 27016G26KT 9000 -RA FEW020TCU SCT025 13/11 Q1006

24/02/2018, 15:57:07

Description
Results
Ryanair Logo
Number of Pilots based at LGSA
0 Pilots Based here
Number of Ryanair Flights Departed from LGSA
1 Flights Departed
Number of Ryanair Flights Arrived at LGSA
1 Flights Arrived
Number of Ryanair Schedules Departing from LGSA
44 Schedules
Number of Ryanair Schedules Arriving at LGSA
44 Schedules
Number of Ryanair Schedules Departing from LGSA availible today
13 Schedules Today
Number of Ryanair Schedules Arriving at LGSA availible today
13 Schedules Today
Average Landing Rate at LGSA
-262 fpm
Ryanair Average Landing Rate at LGSA
-119 fpm
Total Fuel Purchased at LGSA by Ryanair
7,582.70 kgs / 16,716.82 lbs

Pilots Based at LGSA


Pilot ID
Pilot Name
Pilot Rank
No. of Flights
No. of Flying Hours
There are no pilots assigned to this hub!   Will you be the first?
Content